Reno, Pennsylvania
Current Conditions -  °F | °C
As of 6:55 PM on Sunday 21 Dec 2014 (Local Time) from KFKL Reporting Station
Overcast Overcast  
Wind Chill: 28°   Ceiling: 1900
Heat Index: 28°   Visibility: 10mi
Dew Point: 19°   Wind: 3mph
Humidity: 69%   Direction: 120°ESE
Pressure: 30.24"   Gusts: NA
Location:  41.41°N, 79.75°W
Report Text: KFKL 212355Z AUTO 12003KT 10SM OVC019 M02/M07 A3024 RMK AO1 11020 21020 410201030 54000
Loading
Personal Weather Stations






























Interactive Weather Map New forecast layout! Learn more

10-Day Weather Forecast

Advertisements
Track Severe Weather on mobile